sensor_id;sensor_type;location;lat;lon;timestamp;pressure;altitude;pressure_sealevel;temperature;humidity
70730;BME280;58315;53.336;55.932;2023-02-14T00:01:09;100149.25;;;-1.83;57.62
70730;BME280;58315;53.336;55.932;2023-02-14T00:03:54;100150.41;;;-1.92;56.98
70730;BME280;58315;53.336;55.932;2023-02-14T00:06:25;100151.16;;;-1.88;57.40
70730;BME280;58315;53.336;55.932;2023-02-14T00:08:52;100143.56;;;-1.95;57.02
70730;BME280;58315;53.336;55.932;2023-02-14T00:11:20;100142.72;;;-1.95;57.86
70730;BME280;58315;53.336;55.932;2023-02-14T00:13:46;100134.00;;;-1.92;57.82
70730;BME280;58315;53.336;55.932;2023-02-14T00:16:31;100151.06;;;-1.85;57.67
70730;BME280;58315;53.336;55.932;2023-02-14T00:18:57;100136.28;;;-1.82;57.77
70730;BME280;58315;53.336;55.932;2023-02-14T00:21:34;100142.13;;;-1.75;57.28
70730;BME280;58315;53.336;55.932;2023-02-14T00:24:05;100131.94;;;-1.81;57.37
70730;BME280;58315;53.336;55.932;2023-02-14T00:26:32;100137.38;;;-1.90;57.50
70730;BME280;58315;53.336;55.932;2023-02-14T00:28:58;100127.91;;;-1.90;57.29
70730;BME280;58315;53.336;55.932;2023-02-14T00:31:24;100128.78;;;-1.91;57.16
70730;BME280;58315;53.336;55.932;2023-02-14T00:33:50;100134.78;;;-1.89;57.51
70730;BME280;58315;53.336;55.932;2023-02-14T00:36:17;100131.19;;;-1.85;57.13
70730;BME280;58315;53.336;55.932;2023-02-14T00:38:44;100132.50;;;-2.00;57.20
70730;BME280;58315;53.336;55.932;2023-02-14T00:41:10;100127.22;;;-1.97;57.47
70730;BME280;58315;53.336;55.932;2023-02-14T00:43:48;100116.81;;;-1.95;57.02
70730;BME280;58315;53.336;55.932;2023-02-14T00:46:17;100133.16;;;-1.93;57.19
70730;BME280;58315;53.336;55.932;2023-02-14T00:48:44;100138.59;;;-2.01;56.95
70730;BME280;58315;53.336;55.932;2023-02-14T00:51:11;100129.56;;;-2.17;57.00
70730;BME280;58315;53.336;55.932;2023-02-14T00:53:37;100126.72;;;-2.09;56.98
70730;BME280;58315;53.336;55.932;2023-02-14T00:56:05;100126.72;;;-2.08;56.45
70730;BME280;58315;53.336;55.932;2023-02-14T00:58:31;100124.06;;;-2.06;56.45
70730;BME280;58315;53.336;55.932;2023-02-14T01:00:58;100126.06;;;-2.16;56.61
70730;BME280;58315;53.336;55.932;2023-02-14T01:03:24;100119.13;;;-2.14;56.13
70730;BME280;58315;53.336;55.932;2023-02-14T01:05:50;100120.03;;;-2.16;56.21
70730;BME280;58315;53.336;55.932;2023-02-14T01:08:16;100117.53;;;-2.20;55.96
70730;BME280;58315;53.336;55.932;2023-02-14T01:10:43;100114.03;;;-2.17;56.18
70730;BME280;58315;53.336;55.932;2023-02-14T01:13:09;100112.34;;;-2.20;55.50
70730;BME280;58315;53.336;55.932;2023-02-14T01:15:41;100119.94;;;-2.12;55.63
70730;BME280;58315;53.336;55.932;2023-02-14T01:18:07;100116.78;;;-2.23;55.57
70730;BME280;58315;53.336;55.932;2023-02-14T01:20:34;100111.06;;;-2.34;55.60
70730;BME280;58315;53.336;55.932;2023-02-14T01:23:00;100110.44;;;-2.43;55.53
70730;BME280;58315;53.336;55.932;2023-02-14T01:25:27;100109.47;;;-2.38;55.38
70730;BME280;58315;53.336;55.932;2023-02-14T01:27:53;100099.19;;;-2.42;55.31
70730;BME280;58315;53.336;55.932;2023-02-14T01:30:19;100091.78;;;-2.52;55.57
70730;BME280;58315;53.336;55.932;2023-02-14T01:32:45;100090.03;;;-2.52;55.55
70730;BME280;58315;53.336;55.932;2023-02-14T01:35:11;100085.91;;;-2.59;55.82
70730;BME280;58315;53.336;55.932;2023-02-14T01:37:37;100077.41;;;-2.64;55.83
70730;BME280;58315;53.336;55.932;2023-02-14T01:40:06;100080.91;;;-2.65;55.44
70730;BME280;58315;53.336;55.932;2023-02-14T01:42:34;100084.38;;;-2.66;55.79
70730;BME280;58315;53.336;55.932;2023-02-14T01:45:20;100081.81;;;-2.66;55.87
70730;BME280;58315;53.336;55.932;2023-02-14T01:47:50;100077.59;;;-2.70;56.04
70730;BME280;58315;53.336;55.932;2023-02-14T01:50:22;100078.22;;;-2.62;55.79
70730;BME280;58315;53.336;55.932;2023-02-14T01:52:52;100068.81;;;-2.64;56.21
70730;BME280;58315;53.336;55.932;2023-02-14T01:55:23;100085.78;;;-2.54;55.99
70730;BME280;58315;53.336;55.932;2023-02-14T01:57:55;100078.84;;;-2.54;56.00
70730;BME280;58315;53.336;55.932;2023-02-14T02:00:22;100079.84;;;-2.58;56.09
70730;BME280;58315;53.336;55.932;2023-02-14T02:03:07;100066.00;;;-2.57;55.87
70730;BME280;58315;53.336;55.932;2023-02-14T02:05:37;100066.59;;;-2.47;55.92
70730;BME280;58315;53.336;55.932;2023-02-14T02:08:06;100069.03;;;-2.43;55.48
70730;BME280;58315;53.336;55.932;2023-02-14T02:10:32;100065.59;;;-2.43;55.33
70730;BME280;58315;53.336;55.932;2023-02-14T02:13:02;100063.88;;;-2.43;55.24
70730;BME280;58315;53.336;55.932;2023-02-14T02:15:31;100068.25;;;-2.45;55.42
70730;BME280;58315;53.336;55.932;2023-02-14T02:18:18;100067.28;;;-2.40;55.06
70730;BME280;58315;53.336;55.932;2023-02-14T02:32:25;100057.84;;;-2.43;54.95
70730;BME280;58315;53.336;55.932;2023-02-14T02:40:46;100061.72;;;-2.28;55.36
70730;BME280;58315;53.336;55.932;2023-02-14T02:46:04;100058.59;;;-2.39;55.32
70730;BME280;58315;53.336;55.932;2023-02-14T02:51:43;100053.56;;;-2.44;54.89
70730;BME280;58315;53.336;55.932;2023-02-14T02:54:36;100054.59;;;-2.50;55.11
70730;BME280;58315;53.336;55.932;2023-02-14T02:57:11;100058.06;;;-2.51;54.40
70730;BME280;58315;53.336;55.932;2023-02-14T02:59:41;100046.03;;;-2.52;54.71
70730;BME280;58315;53.336;55.932;2023-02-14T03:04:49;100044.22;;;-2.48;54.41
70730;BME280;58315;53.336;55.932;2023-02-14T03:07:32;100041.56;;;-2.47;53.95
70730;BME280;58315;53.336;55.932;2023-02-14T03:21:44;100032.03;;;-2.74;53.38
70730;BME280;58315;53.336;55.932;2023-02-14T03:26:50;100033.41;;;-2.92;53.67
70730;BME280;58315;53.336;55.932;2023-02-14T03:29:47;100034.03;;;-2.85;53.45
70730;BME280;58315;53.336;55.932;2023-02-14T03:32:40;100036.81;;;-2.92;53.36
70730;BME280;58315;53.336;55.932;2023-02-14T03:35:14;100034.78;;;-3.11;53.62
70730;BME280;58315;53.336;55.932;2023-02-14T03:38:08;100042.16;;;-2.98;53.95
70730;BME280;58315;53.336;55.932;2023-02-14T03:40:43;100039.69;;;-3.02;53.78
70730;BME280;58315;53.336;55.932;2023-02-14T03:43:18;100045.00;;;-3.07;53.78
70730;BME280;58315;53.336;55.932;2023-02-14T03:45:50;100043.13;;;-3.02;53.70
70730;BME280;58315;53.336;55.932;2023-02-14T03:48:20;100038.09;;;-3.06;54.05
70730;BME280;58315;53.336;55.932;2023-02-14T03:50:49;100031.19;;;-3.07;53.43
70730;BME280;58315;53.336;55.932;2023-02-14T03:53:21;100028.38;;;-2.98;53.40
70730;BME280;58315;53.336;55.932;2023-02-14T03:55:56;100040.38;;;-2.96;53.44
70730;BME280;58315;53.336;55.932;2023-02-14T03:58:26;100033.84;;;-3.09;53.65
70730;BME280;58315;53.336;55.932;2023-02-14T04:00:59;100033.78;;;-3.06;53.67
70730;BME280;58315;53.336;55.932;2023-02-14T04:03:28;100028.31;;;-2.97;53.81
70730;BME280;58315;53.336;55.932;2023-02-14T04:05:55;100029.84;;;-2.89;53.50
70730;BME280;58315;53.336;55.932;2023-02-14T04:08:24;100032.09;;;-2.77;53.16
70730;BME280;58315;53.336;55.932;2023-02-14T04:10:51;100032.91;;;-2.75;53.06
70730;BME280;58315;53.336;55.932;2023-02-14T04:13:17;100024.34;;;-2.77;52.68
70730;BME280;58315;53.336;55.932;2023-02-14T04:15:43;100031.47;;;-2.85;52.56
70730;BME280;58315;53.336;55.932;2023-02-14T04:18:09;100027.81;;;-2.78;52.92
70730;BME280;58315;53.336;55.932;2023-02-14T04:20:54;100025.88;;;-2.70;52.68
70730;BME280;58315;53.336;55.932;2023-02-14T04:23:20;100022.31;;;-2.68;52.79
70730;BME280;58315;53.336;55.932;2023-02-14T04:25:46;100017.22;;;-2.69;52.18
70730;BME280;58315;53.336;55.932;2023-02-14T04:28:12;100021.22;;;-2.59;52.69
70730;BME280;58315;53.336;55.932;2023-02-14T04:30:38;100030.69;;;-2.58;52.44
70730;BME280;58315;53.336;55.932;2023-02-14T04:33:04;100030.31;;;-2.46;52.49
70730;BME280;58315;53.336;55.932;2023-02-14T04:35:33;100017.19;;;-2.39;52.32
70730;BME280;58315;53.336;55.932;2023-02-14T04:38:01;100020.28;;;-2.28;51.61
70730;BME280;58315;53.336;55.932;2023-02-14T04:40:27;100018.31;;;-2.20;51.68
70730;BME280;58315;53.336;55.932;2023-02-14T04:42:53;100012.81;;;-2.09;50.98
70730;BME280;58315;53.336;55.932;2023-02-14T04:45:19;100010.81;;;-2.01;50.36
70730;BME280;58315;53.336;55.932;2023-02-14T04:47:45;100012.56;;;-2.02;50.56
70730;BME280;58315;53.336;55.932;2023-02-14T04:50:12;100007.88;;;-1.90;50.58
70730;BME280;58315;53.336;55.932;2023-02-14T04:52:38;100011.44;;;-1.93;50.48
70730;BME280;58315;53.336;55.932;2023-02-14T04:55:05;100000.91;;;-1.88;50.67
70730;BME280;58315;53.336;55.932;2023-02-14T04:57:31;99995.16;;;-1.98;50.39
70730;BME280;58315;53.336;55.932;2023-02-14T04:59:57;99992.81;;;-1.79;50.23
70730;BME280;58315;53.336;55.932;2023-02-14T05:02:23;99988.28;;;-1.73;49.19
70730;BME280;58315;53.336;55.932;2023-02-14T05:04:49;99987.84;;;-1.59;48.81
70730;BME280;58315;53.336;55.932;2023-02-14T05:07:15;99976.34;;;-1.52;48.46
70730;BME280;58315;53.336;55.932;2023-02-14T05:09:41;99978.09;;;-1.52;48.92
70730;BME280;58315;53.336;55.932;2023-02-14T05:12:07;99974.31;;;-1.42;48.12
70730;BME280;58315;53.336;55.932;2023-02-14T05:14:33;99991.53;;;-1.41;48.15
70730;BME280;58315;53.336;55.932;2023-02-14T05:16:59;99976.94;;;-1.43;47.88
70730;BME280;58315;53.336;55.932;2023-02-14T05:19:25;99982.84;;;-1.40;48.20
70730;BME280;58315;53.336;55.932;2023-02-14T05:21:51;99986.19;;;-1.36;47.78
70730;BME280;58315;53.336;55.932;2023-02-14T05:24:17;99988.47;;;-1.27;47.83
70730;BME280;58315;53.336;55.932;2023-02-14T05:26:43;99993.88;;;-1.33;46.77
70730;BME280;58315;53.336;55.932;2023-02-14T05:29:09;99988.88;;;-1.39;47.11
70730;BME280;58315;53.336;55.932;2023-02-14T05:31:35;99991.28;;;-1.33;46.90
70730;BME280;58315;53.336;55.932;2023-02-14T05:34:01;99986.28;;;-1.39;47.06
70730;BME280;58315;53.336;55.932;2023-02-14T05:36:27;99990.25;;;-1.29;47.24
70730;BME280;58315;53.336;55.932;2023-02-14T05:38:53;99989.34;;;-1.28;47.04
70730;BME280;58315;53.336;55.932;2023-02-14T05:41:19;99997.94;;;-1.26;46.78
70730;BME280;58315;53.336;55.932;2023-02-14T05:43:48;99997.09;;;-1.03;46.99
70730;BME280;58315;53.336;55.932;2023-02-14T05:46:14;99998.97;;;-1.07;46.34
70730;BME280;58315;53.336;55.932;2023-02-14T05:48:40;99990.88;;;-0.98;45.87
70730;BME280;58315;53.336;55.932;2023-02-14T05:51:08;99992.88;;;-0.82;45.74
70730;BME280;58315;53.336;55.932;2023-02-14T05:53:35;99990.22;;;-0.81;45.72
70730;BME280;58315;53.336;55.932;2023-02-14T05:56:01;99989.50;;;-0.84;45.76
70730;BME280;58315;53.336;55.932;2023-02-14T05:58:27;99992.31;;;-1.14;46.11
70730;BME280;58315;53.336;55.932;2023-02-14T06:00:55;99987.88;;;-0.87;46.96
70730;BME280;58315;53.336;55.932;2023-02-14T06:03:21;99993.41;;;-0.73;45.90
70730;BME280;58315;53.336;55.932;2023-02-14T06:05:47;99987.00;;;-0.64;45.82
70730;BME280;58315;53.336;55.932;2023-02-14T06:08:13;99987.94;;;-0.65;45.26
70730;BME280;58315;53.336;55.932;2023-02-14T06:10:39;99996.38;;;-0.60;45.99
70730;BME280;58315;53.336;55.932;2023-02-14T06:13:05;99987.44;;;-0.53;45.06
70730;BME280;58315;53.336;55.932;2023-02-14T06:15:34;99979.78;;;-0.56;45.42
70730;BME280;58315;53.336;55.932;2023-02-14T06:18:03;99977.13;;;-0.54;44.95
70730;BME280;58315;53.336;55.932;2023-02-14T06:20:30;99988.06;;;-0.46;45.14
70730;BME280;58315;53.336;55.932;2023-02-14T06:22:56;99977.19;;;-0.34;45.11
70730;BME280;58315;53.336;55.932;2023-02-14T06:25:23;99973.44;;;-0.27;43.94
70730;BME280;58315;53.336;55.932;2023-02-14T06:27:49;99980.34;;;-0.26;44.27
70730;BME280;58315;53.336;55.932;2023-02-14T06:30:16;99977.06;;;-0.31;44.82
70730;BME280;58315;53.336;55.932;2023-02-14T06:32:43;99969.97;;;-0.26;44.61
70730;BME280;58315;53.336;55.932;2023-02-14T06:35:09;99969.69;;;-0.19;44.30
70730;BME280;58315;53.336;55.932;2023-02-14T06:37:35;99958.97;;;-0.10;43.49
70730;BME280;58315;53.336;55.932;2023-02-14T06:40:01;99960.75;;;-0.12;43.71
70730;BME280;58315;53.336;55.932;2023-02-14T06:42:29;99956.28;;;-0.09;43.57
70730;BME280;58315;53.336;55.932;2023-02-14T06:44:55;99966.53;;;0.16;44.13
70730;BME280;58315;53.336;55.932;2023-02-14T06:47:21;99963.47;;;0.27;43.67
70730;BME280;58315;53.336;55.932;2023-02-14T06:49:47;99963.22;;;0.33;43.51
70730;BME280;58315;53.336;55.932;2023-02-14T06:52:13;99955.81;;;0.44;43.56
70730;BME280;58315;53.336;55.932;2023-02-14T06:54:42;99965.31;;;0.66;42.93
70730;BME280;58315;53.336;55.932;2023-02-14T06:57:08;99950.84;;;0.79;42.84
70730;BME280;58315;53.336;55.932;2023-02-14T06:59:34;99955.28;;;0.96;43.47
70730;BME280;58315;53.336;55.932;2023-02-14T07:02:00;99950.28;;;0.91;42.02
70730;BME280;58315;53.336;55.932;2023-02-14T07:04:26;99950.44;;;1.07;42.70
70730;BME280;58315;53.336;55.932;2023-02-14T07:06:52;99944.25;;;1.29;42.22
70730;BME280;58315;53.336;55.932;2023-02-14T07:09:17;99946.66;;;1.33;42.38
70730;BME280;58315;53.336;55.932;2023-02-14T07:11:44;99941.81;;;1.26;42.53
70730;BME280;58315;53.336;55.932;2023-02-14T07:14:10;99942.63;;;1.26;41.83
70730;BME280;58315;53.336;55.932;2023-02-14T07:16:36;99929.41;;;1.31;42.41
70730;BME280;58315;53.336;55.932;2023-02-14T07:19:21;99934.41;;;1.35;41.93
70730;BME280;58315;53.336;55.932;2023-02-14T07:21:47;99930.03;;;1.36;41.14
70730;BME280;58315;53.336;55.932;2023-02-14T07:24:13;99925.38;;;1.24;41.24
70730;BME280;58315;53.336;55.932;2023-02-14T07:26:39;99924.75;;;1.37;41.80
70730;BME280;58315;53.336;55.932;2023-02-14T07:29:05;99913.19;;;1.62;41.97
70730;BME280;58315;53.336;55.932;2023-02-14T07:31:31;99908.47;;;1.87;41.37
70730;BME280;58315;53.336;55.932;2023-02-14T07:33:57;99907.13;;;1.79;40.75
70730;BME280;58315;53.336;55.932;2023-02-14T07:36:25;99919.50;;;1.92;41.09
70730;BME280;58315;53.336;55.932;2023-02-14T07:38:51;99916.06;;;2.09;40.35
70730;BME280;58315;53.336;55.932;2023-02-14T07:41:17;99898.34;;;2.16;40.39
70730;BME280;58315;53.336;55.932;2023-02-14T07:43:43;99904.06;;;2.23;40.08
70730;BME280;58315;53.336;55.932;2023-02-14T07:46:09;99891.03;;;2.23;39.89
70730;BME280;58315;53.336;55.932;2023-02-14T07:48:35;99897.00;;;2.42;40.23
70730;BME280;58315;53.336;55.932;2023-02-14T07:51:03;99894.66;;;2.20;39.34
70730;BME280;58315;53.336;55.932;2023-02-14T07:53:29;99887.06;;;2.15;39.44
70730;BME280;58315;53.336;55.932;2023-02-14T07:55:55;99883.75;;;2.12;38.77
70730;BME280;58315;53.336;55.932;2023-02-14T07:58:22;99870.75;;;1.95;37.37
70730;BME280;58315;53.336;55.932;2023-02-14T08:00:48;99869.34;;;1.70;37.74
70730;BME280;58315;53.336;55.932;2023-02-14T08:03:16;99866.31;;;1.79;37.84
70730;BME280;58315;53.336;55.932;2023-02-14T08:05:42;99869.88;;;1.59;37.17
70730;BME280;58315;53.336;55.932;2023-02-14T08:08:08;99863.44;;;1.49;37.36
70730;BME280;58315;53.336;55.932;2023-02-14T08:10:52;99862.63;;;1.66;37.15
70730;BME280;58315;53.336;55.932;2023-02-14T08:13:18;99849.28;;;1.72;36.94
70730;BME280;58315;53.336;55.932;2023-02-14T08:15:44;99850.56;;;1.63;36.87
70730;BME280;58315;53.336;55.932;2023-02-14T08:20:59;99833.66;;;1.72;37.22
70730;BME280;58315;53.336;55.932;2023-02-14T08:23:25;99832.03;;;1.69;36.37
70730;BME280;58315;53.336;55.932;2023-02-14T08:25:51;99836.09;;;1.58;36.60
70730;BME280;58315;53.336;55.932;2023-02-14T08:28:18;99823.28;;;1.53;36.81
70730;BME280;58315;53.336;55.932;2023-02-14T08:30:46;99823.44;;;1.33;36.61
70730;BME280;58315;53.336;55.932;2023-02-14T08:33:12;99812.97;;;1.52;36.88
70730;BME280;58315;53.336;55.932;2023-02-14T08:35:38;99818.31;;;1.49;37.04
70730;BME280;58315;53.336;55.932;2023-02-14T08:38:04;99827.56;;;1.37;36.75
70730;BME280;58315;53.336;55.932;2023-02-14T08:40:30;99813.03;;;1.50;36.65
70730;BME280;58315;53.336;55.932;2023-02-14T08:42:56;99807.28;;;1.43;36.10
70730;BME280;58315;53.336;55.932;2023-02-14T08:45:22;99814.31;;;1.41;35.95
70730;BME280;58315;53.336;55.932;2023-02-14T08:47:48;99803.75;;;1.44;36.58
70730;BME280;58315;53.336;55.932;2023-02-14T08:50:16;99801.69;;;1.51;36.48
70730;BME280;58315;53.336;55.932;2023-02-14T08:52:43;99802.69;;;1.66;36.54
70730;BME280;58315;53.336;55.932;2023-02-14T08:55:10;99800.69;;;1.71;37.43
70730;BME280;58315;53.336;55.932;2023-02-14T08:57:36;99792.81;;;1.73;36.35
70730;BME280;58315;53.336;55.932;2023-02-14T09:00:03;99789.97;;;1.77;36.42
70730;BME280;58315;53.336;55.932;2023-02-14T09:02:31;99797.94;;;1.74;36.23
70730;BME280;58315;53.336;55.932;2023-02-14T09:04:57;99807.81;;;1.67;36.13
70730;BME280;58315;53.336;55.932;2023-02-14T09:07:23;99798.94;;;1.54;37.17
70730;BME280;58315;53.336;55.932;2023-02-14T09:09:49;99801.16;;;1.62;36.95
70730;BME280;58315;53.336;55.932;2023-02-14T09:12:15;99797.63;;;1.80;36.88
70730;BME280;58315;53.336;55.932;2023-02-14T09:14:42;99794.69;;;1.86;36.88
70730;BME280;58315;53.336;55.932;2023-02-14T09:17:09;99795.78;;;2.00;37.38
70730;BME280;58315;53.336;55.932;2023-02-14T09:19:36;99785.34;;;2.00;37.87
70730;BME280;58315;53.336;55.932;2023-02-14T09:22:21;99783.94;;;2.10;37.61
70730;BME280;58315;53.336;55.932;2023-02-14T09:24:47;99767.88;;;2.02;37.59
70730;BME280;58315;53.336;55.932;2023-02-14T09:27:13;99775.41;;;1.90;38.18
70730;BME280;58315;53.336;55.932;2023-02-14T09:29:39;99762.66;;;2.02;38.02
70730;BME280;58315;53.336;55.932;2023-02-14T09:32:04;99770.53;;;2.00;37.72
70730;BME280;58315;53.336;55.932;2023-02-14T09:34:32;99759.59;;;1.93;37.64
70730;BME280;58315;53.336;55.932;2023-02-14T09:36:59;99763.28;;;1.89;38.04
70730;BME280;58315;53.336;55.932;2023-02-14T09:39:25;99766.22;;;1.83;38.21
70730;BME280;58315;53.336;55.932;2023-02-14T09:42:26;99767.66;;;1.89;38.63
70730;BME280;58315;53.336;55.932;2023-02-14T09:45:01;99752.09;;;1.87;37.97
70730;BME280;58315;53.336;55.932;2023-02-14T09:47:51;99749.69;;;2.00;38.23
70730;BME280;58315;53.336;55.932;2023-02-14T09:50:39;99755.84;;;1.99;38.27
70730;BME280;58315;53.336;55.932;2023-02-14T09:53:15;99744.47;;;2.00;38.49
70730;BME280;58315;53.336;55.932;2023-02-14T09:58:32;99739.34;;;1.99;37.91
70730;BME280;58315;53.336;55.932;2023-02-14T10:01:14;99732.38;;;1.99;38.59
70730;BME280;58315;53.336;55.932;2023-02-14T10:09:13;99725.66;;;2.11;38.44
70730;BME280;58315;53.336;55.932;2023-02-14T10:11:44;99715.41;;;2.08;38.52
70730;BME280;58315;53.336;55.932;2023-02-14T10:14:19;99711.63;;;2.13;38.54
70730;BME280;58315;53.336;55.932;2023-02-14T10:17:00;99705.50;;;2.14;39.18
70730;BME280;58315;53.336;55.932;2023-02-14T10:19:39;99705.31;;;2.02;38.99
70730;BME280;58315;53.336;55.932;2023-02-14T10:22:12;99699.16;;;1.87;38.56
70730;BME280;58315;53.336;55.932;2023-02-14T10:25:05;99692.75;;;1.92;38.57
70730;BME280;58315;53.336;55.932;2023-02-14T10:27:40;99701.06;;;1.83;38.41
70730;BME280;58315;53.336;55.932;2023-02-14T10:30:21;99700.41;;;1.80;39.07
70730;BME280;58315;53.336;55.932;2023-02-14T10:46:58;99688.50;;;1.74;38.58
70730;BME280;58315;53.336;55.932;2023-02-14T10:55:11;99701.56;;;1.57;38.27
70730;BME280;58315;53.336;55.932;2023-02-14T10:57:43;99709.31;;;1.41;38.00
70730;BME280;58315;53.336;55.932;2023-02-14T11:02:44;99704.84;;;1.60;37.92
70730;BME280;58315;53.336;55.932;2023-02-14T11:05:35;99701.50;;;1.58;37.53
70730;BME280;58315;53.336;55.932;2023-02-14T11:08:33;99698.06;;;1.40;37.63
70730;BME280;58315;53.336;55.932;2023-02-14T11:11:06;99701.91;;;1.33;38.08
70730;BME280;58315;53.336;55.932;2023-02-14T11:13:37;99695.47;;;1.40;37.90
70730;BME280;58315;53.336;55.932;2023-02-14T11:16:07;99697.59;;;1.50;38.39
70730;BME280;58315;53.336;55.932;2023-02-14T11:18:34;99697.84;;;1.45;38.82
70730;BME280;58315;53.336;55.932;2023-02-14T11:21:13;99693.94;;;1.54;38.86
70730;BME280;58315;53.336;55.932;2023-02-14T11:23:42;99685.06;;;1.40;38.51
70730;BME280;58315;53.336;55.932;2023-02-14T11:31:33;99677.03;;;1.61;38.54
70730;BME280;58315;53.336;55.932;2023-02-14T11:34:00;99684.06;;;1.43;38.74
70730;BME280;58315;53.336;55.932;2023-02-14T11:36:29;99680.47;;;1.28;39.06
70730;BME280;58315;53.336;55.932;2023-02-14T11:39:15;99688.75;;;1.36;38.63
70730;BME280;58315;53.336;55.932;2023-02-14T11:41:50;99689.56;;;1.19;38.64
70730;BME280;58315;53.336;55.932;2023-02-14T11:44:28;99685.34;;;1.17;39.01
70730;BME280;58315;53.336;55.932;2023-02-14T11:46:56;99682.63;;;1.03;39.25
70730;BME280;58315;53.336;55.932;2023-02-14T11:49:27;99680.59;;;0.90;39.17
70730;BME280;58315;53.336;55.932;2023-02-14T11:51:55;99682.13;;;0.77;39.85
70730;BME280;58315;53.336;55.932;2023-02-14T11:54:28;99678.84;;;0.74;40.03
70730;BME280;58315;53.336;55.932;2023-02-14T11:57:01;99685.34;;;0.82;40.59
70730;BME280;58315;53.336;55.932;2023-02-14T11:59:31;99683.81;;;0.78;40.56
70730;BME280;58315;53.336;55.932;2023-02-14T12:02:01;99689.16;;;0.75;40.43
70730;BME280;58315;53.336;55.932;2023-02-14T12:04:31;99679.97;;;0.68;40.04
70730;BME280;58315;53.336;55.932;2023-02-14T12:07:19;99691.25;;;0.50;40.73
70730;BME280;58315;53.336;55.932;2023-02-14T12:09:47;99685.03;;;0.16;41.28
70730;BME280;58315;53.336;55.932;2023-02-14T12:12:29;99689.09;;;0.03;41.04
70730;BME280;58315;53.336;55.932;2023-02-14T12:18:34;99703.69;;;-0.14;42.39
70730;BME280;58315;53.336;55.932;2023-02-14T12:29:12;99683.47;;;-0.67;43.21
70730;BME280;58315;53.336;55.932;2023-02-14T12:31:43;99694.13;;;-0.73;42.81
70730;BME280;58315;53.336;55.932;2023-02-14T12:34:12;99690.41;;;-0.88;43.07
70730;BME280;58315;53.336;55.932;2023-02-14T12:45:08;99681.47;;;-1.01;44.01
70730;BME280;58315;53.336;55.932;2023-02-14T12:55:39;99682.16;;;-1.40;44.03
70730;BME280;58315;53.336;55.932;2023-02-14T13:06:27;99683.06;;;-1.19;43.16
70730;BME280;58315;53.336;55.932;2023-02-14T13:15:20;99680.66;;;-1.46;43.65
70730;BME280;58315;53.336;55.932;2023-02-14T13:17:54;99681.94;;;-1.56;44.46
70730;BME280;58315;53.336;55.932;2023-02-14T13:20:50;99691.19;;;-1.50;44.45
70730;BME280;58315;53.336;55.932;2023-02-14T13:23:28;99688.03;;;-1.57;44.07
70730;BME280;58315;53.336;55.932;2023-02-14T13:26:06;99692.53;;;-1.62;44.10
70730;BME280;58315;53.336;55.932;2023-02-14T13:28:37;99692.09;;;-1.73;44.81
70730;BME280;58315;53.336;55.932;2023-02-14T13:31:04;99690.59;;;-1.79;44.17
70730;BME280;58315;53.336;55.932;2023-02-14T13:33:32;99682.09;;;-1.82;44.47
70730;BME280;58315;53.336;55.932;2023-02-14T13:36:00;99678.69;;;-1.84;44.25
70730;BME280;58315;53.336;55.932;2023-02-14T13:38:27;99676.72;;;-1.78;44.53
70730;BME280;58315;53.336;55.932;2023-02-14T13:40:57;99675.09;;;-1.80;44.26
70730;BME280;58315;53.336;55.932;2023-02-14T13:46:17;99688.69;;;-2.21;45.07
70730;BME280;58315;53.336;55.932;2023-02-14T13:48:55;99691.75;;;-2.34;45.06
70730;BME280;58315;53.336;55.932;2023-02-14T13:51:48;99688.44;;;-2.38;44.94
70730;BME280;58315;53.336;55.932;2023-02-14T13:54:28;99693.03;;;-2.46;45.23
70730;BME280;58315;53.336;55.932;2023-02-14T13:56:56;99690.63;;;-2.76;45.51
70730;BME280;58315;53.336;55.932;2023-02-14T13:59:32;99692.09;;;-2.94;45.99
70730;BME280;58315;53.336;55.932;2023-02-14T14:04:52;99690.69;;;-3.04;46.20
70730;BME280;58315;53.336;55.932;2023-02-14T14:07:26;99695.88;;;-3.04;46.24
70730;BME280;58315;53.336;55.932;2023-02-14T14:09:59;99700.06;;;-3.00;46.00
70730;BME280;58315;53.336;55.932;2023-02-14T14:17:34;99709.28;;;-3.19;45.96
70730;BME280;58315;53.336;55.932;2023-02-14T14:22:55;99708.19;;;-3.38;46.22
70730;BME280;58315;53.336;55.932;2023-02-14T14:25:37;99709.94;;;-3.39;46.62
70730;BME280;58315;53.336;55.932;2023-02-14T14:28:19;99706.44;;;-3.38;46.32
70730;BME280;58315;53.336;55.932;2023-02-14T14:30:46;99701.63;;;-3.49;46.34
70730;BME280;58315;53.336;55.932;2023-02-14T14:38:22;99707.34;;;-3.39;46.61
70730;BME280;58315;53.336;55.932;2023-02-14T14:40:49;99705.44;;;-3.32;46.48
70730;BME280;58315;53.336;55.932;2023-02-14T14:45:47;99699.25;;;-3.28;46.10
70730;BME280;58315;53.336;55.932;2023-02-14T14:48:39;99699.94;;;-3.23;46.04
70730;BME280;58315;53.336;55.932;2023-02-14T14:51:13;99694.13;;;-3.30;46.05
70730;BME280;58315;53.336;55.932;2023-02-14T14:53:47;99689.13;;;-3.34;46.04
70730;BME280;58315;53.336;55.932;2023-02-14T14:56:23;99690.59;;;-3.27;46.12
70730;BME280;58315;53.336;55.932;2023-02-14T14:58:51;99702.22;;;-3.41;46.18
70730;BME280;58315;53.336;55.932;2023-02-14T15:01:37;99699.34;;;-3.31;45.89
70730;BME280;58315;53.336;55.932;2023-02-14T15:06:39;99711.16;;;-3.51;45.92
70730;BME280;58315;53.336;55.932;2023-02-14T15:09:14;99708.63;;;-3.52;46.02
70730;BME280;58315;53.336;55.932;2023-02-14T15:11:41;99704.50;;;-3.58;45.89
70730;BME280;58315;53.336;55.932;2023-02-14T15:14:28;99707.31;;;-3.66;45.78
70730;BME280;58315;53.336;55.932;2023-02-14T15:17:04;99713.19;;;-3.60;46.08
70730;BME280;58315;53.336;55.932;2023-02-14T15:19:37;99718.28;;;-3.59;45.88
70730;BME280;58315;53.336;55.932;2023-02-14T15:22:45;99718.28;;;-3.59;45.90
70730;BME280;58315;53.336;55.932;2023-02-14T15:25:17;99706.59;;;-3.71;45.72
70730;BME280;58315;53.336;55.932;2023-02-14T15:27:45;99697.47;;;-3.82;45.56
70730;BME280;58315;53.336;55.932;2023-02-14T15:30:25;99704.94;;;-3.73;45.71
70730;BME280;58315;53.336;55.932;2023-02-14T15:32:53;99695.75;;;-3.82;45.42